sensor_id;sensor_type;location;lat;lon;timestamp;P1;durP1;ratioP1;P2;durP2;ratioP2
6661;SDS011;3367;48.714;8.994;2023-03-31T00:00:24;5.43;;;1.77;;
6661;SDS011;3367;48.714;8.994;2023-03-31T00:02:51;6.20;;;2.70;;
6661;SDS011;3367;48.714;8.994;2023-03-31T00:05:20;5.70;;;1.73;;
6661;SDS011;3367;48.714;8.994;2023-03-31T00:07:53;5.53;;;1.90;;
6661;SDS011;3367;48.714;8.994;2023-03-31T00:10:25;8.10;;;1.90;;
6661;SDS011;3367;48.714;8.994;2023-03-31T00:12:52;8.10;;;2.10;;
6661;SDS011;3367;48.714;8.994;2023-03-31T00:15:19;4.27;;;1.57;;
6661;SDS011;3367;48.714;8.994;2023-03-31T00:17:46;4.60;;;2.00;;
6661;SDS011;3367;48.714;8.994;2023-03-31T00:20:12;6.87;;;1.83;;
6661;SDS011;3367;48.714;8.994;2023-03-31T00:22:39;9.70;;;3.30;;
6661;SDS011;3367;48.714;8.994;2023-03-31T00:25:12;2.60;;;1.37;;
6661;SDS011;3367;48.714;8.994;2023-03-31T00:27:40;6.60;;;1.77;;
6661;SDS011;3367;48.714;8.994;2023-03-31T00:30:08;7.70;;;2.27;;
6661;SDS011;3367;48.714;8.994;2023-03-31T00:32:36;3.00;;;2.00;;
6661;SDS011;3367;48.714;8.994;2023-03-31T00:35:03;2.93;;;1.90;;
6661;SDS011;3367;48.714;8.994;2023-03-31T00:37:30;8.83;;;3.13;;
6661;SDS011;3367;48.714;8.994;2023-03-31T00:39:58;6.13;;;1.50;;
6661;SDS011;3367;48.714;8.994;2023-03-31T00:42:26;8.20;;;1.93;;
6661;SDS011;3367;48.714;8.994;2023-03-31T00:45:20;5.20;;;2.17;;
6661;SDS011;3367;48.714;8.994;2023-03-31T00:47:51;4.27;;;1.33;;
6661;SDS011;3367;48.714;8.994;2023-03-31T00:50:23;3.33;;;1.43;;
6661;SDS011;3367;48.714;8.994;2023-03-31T00:52:54;7.33;;;2.37;;
6661;SDS011;3367;48.714;8.994;2023-03-31T00:55:24;3.90;;;1.70;;
6661;SDS011;3367;48.714;8.994;2023-03-31T00:57:57;3.77;;;1.70;;
6661;SDS011;3367;48.714;8.994;2023-03-31T01:00:26;9.33;;;2.33;;
6661;SDS011;3367;48.714;8.994;2023-03-31T01:02:54;6.93;;;1.90;;
6661;SDS011;3367;48.714;8.994;2023-03-31T01:05:24;8.10;;;2.40;;
6661;SDS011;3367;48.714;8.994;2023-03-31T01:07:54;14.20;;;2.30;;
6661;SDS011;3367;48.714;8.994;2023-03-31T01:10:22;5.37;;;1.97;;
6661;SDS011;3367;48.714;8.994;2023-03-31T01:12:51;4.83;;;2.30;;
6661;SDS011;3367;48.714;8.994;2023-03-31T01:15:21;4.17;;;2.53;;
6661;SDS011;3367;48.714;8.994;2023-03-31T01:17:48;3.47;;;1.97;;
6661;SDS011;3367;48.714;8.994;2023-03-31T01:20:20;4.00;;;1.87;;
6661;SDS011;3367;48.714;8.994;2023-03-31T01:23:02;4.97;;;2.20;;
6661;SDS011;3367;48.714;8.994;2023-03-31T01:26:00;4.27;;;2.07;;
6661;SDS011;3367;48.714;8.994;2023-03-31T01:28:53;5.73;;;2.07;;
6661;SDS011;3367;48.714;8.994;2023-03-31T01:31:32;3.40;;;1.43;;
6661;SDS011;3367;48.714;8.994;2023-03-31T01:37:21;8.77;;;1.70;;
6661;SDS011;3367;48.714;8.994;2023-03-31T01:40:25;8.27;;;1.93;;
6661;SDS011;3367;48.714;8.994;2023-03-31T01:43:01;9.00;;;2.00;;
6661;SDS011;3367;48.714;8.994;2023-03-31T01:45:36;5.60;;;2.10;;
6661;SDS011;3367;48.714;8.994;2023-03-31T01:48:14;5.80;;;1.73;;
6661;SDS011;3367;48.714;8.994;2023-03-31T01:50:45;4.70;;;2.30;;
6661;SDS011;3367;48.714;8.994;2023-03-31T01:53:16;4.93;;;2.13;;
6661;SDS011;3367;48.714;8.994;2023-03-31T01:55:49;10.73;;;2.13;;
6661;SDS011;3367;48.714;8.994;2023-03-31T01:58:25;6.13;;;2.33;;
6661;SDS011;3367;48.714;8.994;2023-03-31T02:00:57;5.60;;;2.40;;
6661;SDS011;3367;48.714;8.994;2023-03-31T02:03:28;5.47;;;1.97;;
6661;SDS011;3367;48.714;8.994;2023-03-31T02:05:58;7.73;;;1.90;;
6661;SDS011;3367;48.714;8.994;2023-03-31T02:08:33;5.60;;;2.83;;
6661;SDS011;3367;48.714;8.994;2023-03-31T02:11:04;3.63;;;2.07;;
6661;SDS011;3367;48.714;8.994;2023-03-31T02:13:31;5.50;;;1.77;;
6661;SDS011;3367;48.714;8.994;2023-03-31T02:16:01;10.83;;;2.47;;
6661;SDS011;3367;48.714;8.994;2023-03-31T02:18:32;8.80;;;2.80;;
6661;SDS011;3367;48.714;8.994;2023-03-31T02:21:02;4.67;;;2.00;;
6661;SDS011;3367;48.714;8.994;2023-03-31T02:23:30;3.20;;;1.80;;
6661;SDS011;3367;48.714;8.994;2023-03-31T02:25:59;5.17;;;1.90;;
6661;SDS011;3367;48.714;8.994;2023-03-31T02:28:30;4.10;;;2.00;;
6661;SDS011;3367;48.714;8.994;2023-03-31T02:31:09;2.40;;;2.20;;
6661;SDS011;3367;48.714;8.994;2023-03-31T02:33:46;5.23;;;2.07;;
6661;SDS011;3367;48.714;8.994;2023-03-31T02:36:13;4.30;;;1.80;;
6661;SDS011;3367;48.714;8.994;2023-03-31T02:38:42;4.70;;;2.00;;
6661;SDS011;3367;48.714;8.994;2023-03-31T02:41:12;3.47;;;2.33;;
6661;SDS011;3367;48.714;8.994;2023-03-31T02:43:41;5.50;;;2.23;;
6661;SDS011;3367;48.714;8.994;2023-03-31T02:46:07;7.10;;;1.93;;
6661;SDS011;3367;48.714;8.994;2023-03-31T02:48:36;12.77;;;4.53;;
6661;SDS011;3367;48.714;8.994;2023-03-31T02:54:08;4.53;;;1.87;;
6661;SDS011;3367;48.714;8.994;2023-03-31T02:57:00;4.60;;;2.00;;
6661;SDS011;3367;48.714;8.994;2023-03-31T02:59:45;3.13;;;2.00;;
6661;SDS011;3367;48.714;8.994;2023-03-31T03:02:23;4.90;;;2.53;;
6661;SDS011;3367;48.714;8.994;2023-03-31T03:07:48;9.60;;;2.50;;
6661;SDS011;3367;48.714;8.994;2023-03-31T03:10:25;10.63;;;2.20;;
6661;SDS011;3367;48.714;8.994;2023-03-31T03:13:00;4.47;;;1.97;;
6661;SDS011;3367;48.714;8.994;2023-03-31T03:15:36;5.90;;;2.40;;
6661;SDS011;3367;48.714;8.994;2023-03-31T03:18:07;3.40;;;2.20;;
6661;SDS011;3367;48.714;8.994;2023-03-31T03:20:34;6.20;;;2.60;;
6661;SDS011;3367;48.714;8.994;2023-03-31T03:23:03;7.73;;;2.50;;
6661;SDS011;3367;48.714;8.994;2023-03-31T03:25:30;6.97;;;2.33;;
6661;SDS011;3367;48.714;8.994;2023-03-31T03:27:58;5.47;;;2.30;;
6661;SDS011;3367;48.714;8.994;2023-03-31T03:30:25;4.60;;;2.93;;
6661;SDS011;3367;48.714;8.994;2023-03-31T03:32:53;6.97;;;3.07;;
6661;SDS011;3367;48.714;8.994;2023-03-31T03:35:20;3.13;;;2.20;;
6661;SDS011;3367;48.714;8.994;2023-03-31T03:37:46;5.30;;;2.50;;
6661;SDS011;3367;48.714;8.994;2023-03-31T03:40:13;5.50;;;2.47;;
6661;SDS011;3367;48.714;8.994;2023-03-31T03:42:40;3.77;;;2.83;;
6661;SDS011;3367;48.714;8.994;2023-03-31T03:45:07;5.40;;;2.40;;
6661;SDS011;3367;48.714;8.994;2023-03-31T03:47:34;10.27;;;3.17;;
6661;SDS011;3367;48.714;8.994;2023-03-31T03:50:03;4.20;;;2.70;;
6661;SDS011;3367;48.714;8.994;2023-03-31T03:52:30;6.63;;;3.40;;
6661;SDS011;3367;48.714;8.994;2023-03-31T03:54:57;5.80;;;2.43;;
6661;SDS011;3367;48.714;8.994;2023-03-31T03:57:25;4.70;;;3.20;;
6661;SDS011;3367;48.714;8.994;2023-03-31T03:59:52;6.50;;;2.73;;
6661;SDS011;3367;48.714;8.994;2023-03-31T04:02:19;6.73;;;2.83;;
6661;SDS011;3367;48.714;8.994;2023-03-31T04:04:45;10.13;;;2.77;;
6661;SDS011;3367;48.714;8.994;2023-03-31T04:07:14;8.20;;;3.07;;
6661;SDS011;3367;48.714;8.994;2023-03-31T04:09:41;6.20;;;3.70;;
6661;SDS011;3367;48.714;8.994;2023-03-31T04:12:08;3.40;;;3.10;;
6661;SDS011;3367;48.714;8.994;2023-03-31T04:14:34;6.93;;;3.03;;
6661;SDS011;3367;48.714;8.994;2023-03-31T04:17:01;6.33;;;3.70;;
6661;SDS011;3367;48.714;8.994;2023-03-31T04:19:28;5.70;;;2.80;;
6661;SDS011;3367;48.714;8.994;2023-03-31T04:21:55;8.83;;;3.60;;
6661;SDS011;3367;48.714;8.994;2023-03-31T04:24:27;6.17;;;3.07;;
6661;SDS011;3367;48.714;8.994;2023-03-31T04:26:56;7.53;;;3.17;;
6661;SDS011;3367;48.714;8.994;2023-03-31T04:29:24;5.50;;;3.07;;
6661;SDS011;3367;48.714;8.994;2023-03-31T04:31:51;13.97;;;3.13;;
6661;SDS011;3367;48.714;8.994;2023-03-31T04:34:23;8.13;;;3.23;;
6661;SDS011;3367;48.714;8.994;2023-03-31T04:36:58;8.70;;;4.33;;
6661;SDS011;3367;48.714;8.994;2023-03-31T04:39:28;8.03;;;3.20;;
6661;SDS011;3367;48.714;8.994;2023-03-31T04:41:55;7.83;;;3.67;;
6661;SDS011;3367;48.714;8.994;2023-03-31T04:44:23;9.17;;;3.27;;
6661;SDS011;3367;48.714;8.994;2023-03-31T04:46:50;9.47;;;3.90;;
6661;SDS011;3367;48.714;8.994;2023-03-31T04:49:16;4.20;;;2.70;;
6661;SDS011;3367;48.714;8.994;2023-03-31T04:51:43;10.83;;;4.17;;
6661;SDS011;3367;48.714;8.994;2023-03-31T04:54:10;12.37;;;3.87;;
6661;SDS011;3367;48.714;8.994;2023-03-31T04:56:38;6.83;;;3.20;;
6661;SDS011;3367;48.714;8.994;2023-03-31T04:59:05;8.83;;;3.87;;
6661;SDS011;3367;48.714;8.994;2023-03-31T05:01:32;4.40;;;3.37;;
6661;SDS011;3367;48.714;8.994;2023-03-31T05:04:00;8.53;;;4.60;;
6661;SDS011;3367;48.714;8.994;2023-03-31T05:06:27;5.20;;;3.90;;
6661;SDS011;3367;48.714;8.994;2023-03-31T05:08:53;9.17;;;4.30;;
6661;SDS011;3367;48.714;8.994;2023-03-31T05:11:20;9.20;;;4.00;;
6661;SDS011;3367;48.714;8.994;2023-03-31T05:13:48;12.70;;;4.70;;
6661;SDS011;3367;48.714;8.994;2023-03-31T05:16:15;6.43;;;4.00;;
6661;SDS011;3367;48.714;8.994;2023-03-31T05:18:42;11.10;;;3.57;;
6661;SDS011;3367;48.714;8.994;2023-03-31T05:21:10;9.30;;;4.07;;
6661;SDS011;3367;48.714;8.994;2023-03-31T05:23:38;12.60;;;3.90;;
6661;SDS011;3367;48.714;8.994;2023-03-31T05:26:05;12.73;;;4.33;;
6661;SDS011;3367;48.714;8.994;2023-03-31T05:28:33;7.77;;;4.20;;
6661;SDS011;3367;48.714;8.994;2023-03-31T05:31:01;7.33;;;5.13;;
6661;SDS011;3367;48.714;8.994;2023-03-31T05:33:30;9.47;;;4.77;;
6661;SDS011;3367;48.714;8.994;2023-03-31T05:35:57;16.67;;;4.97;;
6661;SDS011;3367;48.714;8.994;2023-03-31T05:38:24;17.53;;;4.90;;
6661;SDS011;3367;48.714;8.994;2023-03-31T05:40:53;8.20;;;4.97;;
6661;SDS011;3367;48.714;8.994;2023-03-31T05:43:19;11.93;;;5.53;;
6661;SDS011;3367;48.714;8.994;2023-03-31T05:45:46;10.63;;;4.87;;
6661;SDS011;3367;48.714;8.994;2023-03-31T05:48:15;14.17;;;5.43;;
6661;SDS011;3367;48.714;8.994;2023-03-31T05:50:41;12.70;;;5.27;;
6661;SDS011;3367;48.714;8.994;2023-03-31T05:53:08;11.93;;;5.40;;
6661;SDS011;3367;48.714;8.994;2023-03-31T05:55:36;13.73;;;5.30;;
6661;SDS011;3367;48.714;8.994;2023-03-31T05:58:03;12.93;;;5.60;;
6661;SDS011;3367;48.714;8.994;2023-03-31T06:00:30;19.60;;;6.07;;
6661;SDS011;3367;48.714;8.994;2023-03-31T06:02:57;10.63;;;6.00;;
6661;SDS011;3367;48.714;8.994;2023-03-31T06:05:25;9.83;;;5.40;;
6661;SDS011;3367;48.714;8.994;2023-03-31T06:07:54;12.63;;;6.43;;
6661;SDS011;3367;48.714;8.994;2023-03-31T06:10:21;12.43;;;5.87;;
6661;SDS011;3367;48.714;8.994;2023-03-31T06:12:48;11.03;;;6.17;;
6661;SDS011;3367;48.714;8.994;2023-03-31T06:15:15;13.23;;;5.80;;
6661;SDS011;3367;48.714;8.994;2023-03-31T06:17:42;14.73;;;6.40;;
6661;SDS011;3367;48.714;8.994;2023-03-31T06:20:09;14.13;;;6.40;;
6661;SDS011;3367;48.714;8.994;2023-03-31T06:22:37;12.83;;;6.30;;
6661;SDS011;3367;48.714;8.994;2023-03-31T06:25:04;12.17;;;5.20;;
6661;SDS011;3367;48.714;8.994;2023-03-31T06:27:31;16.73;;;5.70;;
6661;SDS011;3367;48.714;8.994;2023-03-31T06:29:58;11.17;;;5.90;;
6661;SDS011;3367;48.714;8.994;2023-03-31T06:32:24;9.67;;;5.53;;
6661;SDS011;3367;48.714;8.994;2023-03-31T06:34:51;9.70;;;5.60;;
6661;SDS011;3367;48.714;8.994;2023-03-31T06:37:18;11.73;;;5.53;;
6661;SDS011;3367;48.714;8.994;2023-03-31T06:39:46;8.80;;;5.40;;
6661;SDS011;3367;48.714;8.994;2023-03-31T06:42:13;10.67;;;6.00;;
6661;SDS011;3367;48.714;8.994;2023-03-31T06:44:40;18.53;;;7.30;;
6661;SDS011;3367;48.714;8.994;2023-03-31T06:47:06;12.87;;;6.87;;
6661;SDS011;3367;48.714;8.994;2023-03-31T06:49:33;11.07;;;6.00;;
6661;SDS011;3367;48.714;8.994;2023-03-31T06:52:00;11.80;;;6.50;;
6661;SDS011;3367;48.714;8.994;2023-03-31T06:54:27;13.03;;;7.10;;
6661;SDS011;3367;48.714;8.994;2023-03-31T06:56:56;10.53;;;5.47;;
6661;SDS011;3367;48.714;8.994;2023-03-31T06:59:22;11.53;;;5.40;;
6661;SDS011;3367;48.714;8.994;2023-03-31T07:01:49;9.03;;;5.70;;
6661;SDS011;3367;48.714;8.994;2023-03-31T07:04:16;11.00;;;5.77;;
6661;SDS011;3367;48.714;8.994;2023-03-31T07:06:42;14.17;;;4.87;;
6661;SDS011;3367;48.714;8.994;2023-03-31T07:09:09;14.23;;;5.27;;
6661;SDS011;3367;48.714;8.994;2023-03-31T07:11:36;8.73;;;4.80;;
6661;SDS011;3367;48.714;8.994;2023-03-31T07:14:04;6.20;;;3.80;;
6661;SDS011;3367;48.714;8.994;2023-03-31T07:16:30;7.90;;;3.20;;
6661;SDS011;3367;48.714;8.994;2023-03-31T07:18:57;3.47;;;2.73;;
6661;SDS011;3367;48.714;8.994;2023-03-31T07:21:27;3.30;;;2.70;;
6661;SDS011;3367;48.714;8.994;2023-03-31T07:23:54;11.70;;;2.27;;
6661;SDS011;3367;48.714;8.994;2023-03-31T07:26:21;3.90;;;2.43;;
6661;SDS011;3367;48.714;8.994;2023-03-31T07:28:48;4.10;;;2.00;;
6661;SDS011;3367;48.714;8.994;2023-03-31T07:31:17;1.63;;;1.47;;
6661;SDS011;3367;48.714;8.994;2023-03-31T07:33:43;2.00;;;1.60;;
6661;SDS011;3367;48.714;8.994;2023-03-31T07:36:10;6.10;;;2.10;;
6661;SDS011;3367;48.714;8.994;2023-03-31T07:38:37;1.50;;;1.40;;
6661;SDS011;3367;48.714;8.994;2023-03-31T07:41:04;3.63;;;1.47;;
6661;SDS011;3367;48.714;8.994;2023-03-31T07:43:31;1.53;;;0.90;;
6661;SDS011;3367;48.714;8.994;2023-03-31T07:45:57;0.90;;;0.80;;
6661;SDS011;3367;48.714;8.994;2023-03-31T07:48:26;1.10;;;0.90;;
6661;SDS011;3367;48.714;8.994;2023-03-31T07:50:52;2.47;;;1.10;;
6661;SDS011;3367;48.714;8.994;2023-03-31T07:53:19;1.60;;;1.07;;
6661;SDS011;3367;48.714;8.994;2023-03-31T07:55:46;9.73;;;0.83;;
6661;SDS011;3367;48.714;8.994;2023-03-31T07:58:13;3.90;;;1.10;;
6661;SDS011;3367;48.714;8.994;2023-03-31T08:00:40;1.83;;;1.13;;
6661;SDS011;3367;48.714;8.994;2023-03-31T08:03:06;1.10;;;0.90;;
6661;SDS011;3367;48.714;8.994;2023-03-31T08:05:34;2.43;;;0.90;;
6661;SDS011;3367;48.714;8.994;2023-03-31T08:08:01;1.70;;;0.90;;
6661;SDS011;3367;48.714;8.994;2023-03-31T08:10:28;5.50;;;0.80;;
6661;SDS011;3367;48.714;8.994;2023-03-31T08:12:55;0.77;;;0.67;;
6661;SDS011;3367;48.714;8.994;2023-03-31T08:15:22;1.27;;;1.17;;
6661;SDS011;3367;48.714;8.994;2023-03-31T08:17:49;4.10;;;1.00;;
6661;SDS011;3367;48.714;8.994;2023-03-31T08:20:15;1.20;;;1.10;;
6661;SDS011;3367;48.714;8.994;2023-03-31T08:22:43;8.43;;;1.50;;
6661;SDS011;3367;48.714;8.994;2023-03-31T08:25:10;3.10;;;1.27;;
6661;SDS011;3367;48.714;8.994;2023-03-31T08:27:38;8.60;;;1.53;;
6661;SDS011;3367;48.714;8.994;2023-03-31T08:30:06;2.13;;;0.90;;
6661;SDS011;3367;48.714;8.994;2023-03-31T08:32:34;2.90;;;1.20;;
6661;SDS011;3367;48.714;8.994;2023-03-31T08:35:01;0.80;;;0.70;;
6661;SDS011;3367;48.714;8.994;2023-03-31T08:37:28;1.53;;;0.80;;
6661;SDS011;3367;48.714;8.994;2023-03-31T08:39:57;2.23;;;0.90;;
6661;SDS011;3367;48.714;8.994;2023-03-31T08:42:26;2.20;;;0.87;;
6661;SDS011;3367;48.714;8.994;2023-03-31T08:45:00;1.27;;;1.10;;
6661;SDS011;3367;48.714;8.994;2023-03-31T08:47:31;3.07;;;1.20;;
6661;SDS011;3367;48.714;8.994;2023-03-31T08:50:02;2.83;;;1.00;;
6661;SDS011;3367;48.714;8.994;2023-03-31T08:52:33;2.80;;;1.77;;
6661;SDS011;3367;48.714;8.994;2023-03-31T08:55:06;1.70;;;0.80;;
6661;SDS011;3367;48.714;8.994;2023-03-31T08:57:39;9.63;;;1.60;;
6661;SDS011;3367;48.714;8.994;2023-03-31T09:00:17;2.50;;;1.17;;
6661;SDS011;3367;48.714;8.994;2023-03-31T09:02:46;1.97;;;1.00;;
6661;SDS011;3367;48.714;8.994;2023-03-31T09:05:33;3.37;;;0.90;;
6661;SDS011;3367;48.714;8.994;2023-03-31T09:08:24;4.50;;;0.97;;
6661;SDS011;3367;48.714;8.994;2023-03-31T09:11:04;2.20;;;1.03;;
6661;SDS011;3367;48.714;8.994;2023-03-31T09:13:42;1.73;;;0.73;;
6661;SDS011;3367;48.714;8.994;2023-03-31T09:16:25;6.30;;;1.17;;
6661;SDS011;3367;48.714;8.994;2023-03-31T09:18:58;3.97;;;1.00;;
6661;SDS011;3367;48.714;8.994;2023-03-31T09:21:27;1.07;;;0.80;;
6661;SDS011;3367;48.714;8.994;2023-03-31T09:23:57;3.70;;;1.10;;
6661;SDS011;3367;48.714;8.994;2023-03-31T09:26:33;1.90;;;1.00;;
6661;SDS011;3367;48.714;8.994;2023-03-31T09:29:04;7.37;;;1.27;;
6661;SDS011;3367;48.714;8.994;2023-03-31T09:31:38;2.07;;;0.93;;
6661;SDS011;3367;48.714;8.994;2023-03-31T09:34:09;1.33;;;1.20;;
6661;SDS011;3367;48.714;8.994;2023-03-31T09:36:39;2.93;;;1.00;;
6661;SDS011;3367;48.714;8.994;2023-03-31T09:39:07;1.87;;;1.00;;
6661;SDS011;3367;48.714;8.994;2023-03-31T09:41:42;1.90;;;0.93;;
6661;SDS011;3367;48.714;8.994;2023-03-31T09:44:14;4.37;;;1.20;;
6661;SDS011;3367;48.714;8.994;2023-03-31T09:46:51;5.00;;;1.30;;
6661;SDS011;3367;48.714;8.994;2023-03-31T09:49:19;3.60;;;1.80;;
6661;SDS011;3367;48.714;8.994;2023-03-31T09:51:48;2.60;;;1.20;;
6661;SDS011;3367;48.714;8.994;2023-03-31T09:54:23;3.30;;;1.70;;
6661;SDS011;3367;48.714;8.994;2023-03-31T09:56:54;3.50;;;0.90;;
6661;SDS011;3367;48.714;8.994;2023-03-31T09:59:22;5.77;;;1.20;;
6661;SDS011;3367;48.714;8.994;2023-03-31T10:01:57;6.50;;;1.50;;
6661;SDS011;3367;48.714;8.994;2023-03-31T10:04:27;4.77;;;1.40;;
6661;SDS011;3367;48.714;8.994;2023-03-31T10:06:55;4.43;;;1.67;;
6661;SDS011;3367;48.714;8.994;2023-03-31T10:09:24;6.70;;;1.70;;
6661;SDS011;3367;48.714;8.994;2023-03-31T10:11:55;3.33;;;1.50;;
6661;SDS011;3367;48.714;8.994;2023-03-31T10:14:24;3.60;;;1.40;;
6661;SDS011;3367;48.714;8.994;2023-03-31T10:16:53;5.00;;;1.60;;
6661;SDS011;3367;48.714;8.994;2023-03-31T10:19:21;6.93;;;1.50;;
6661;SDS011;3367;48.714;8.994;2023-03-31T10:21:54;5.63;;;1.87;;
6661;SDS011;3367;48.714;8.994;2023-03-31T10:24:22;3.37;;;1.10;;
6661;SDS011;3367;48.714;8.994;2023-03-31T10:26:51;3.87;;;1.30;;
6661;SDS011;3367;48.714;8.994;2023-03-31T10:29:21;3.67;;;1.40;;
6661;SDS011;3367;48.714;8.994;2023-03-31T10:31:53;6.93;;;1.27;;
6661;SDS011;3367;48.714;8.994;2023-03-31T10:34:20;6.40;;;1.20;;
6661;SDS011;3367;48.714;8.994;2023-03-31T10:36:49;4.53;;;1.63;;
6661;SDS011;3367;48.714;8.994;2023-03-31T10:39:17;5.80;;;1.40;;
6661;SDS011;3367;48.714;8.994;2023-03-31T10:41:48;5.00;;;2.23;;
6661;SDS011;3367;48.714;8.994;2023-03-31T10:44:31;5.10;;;1.60;;
6661;SDS011;3367;48.714;8.994;2023-03-31T10:47:03;5.90;;;1.73;;
6661;SDS011;3367;48.714;8.994;2023-03-31T10:49:36;3.90;;;1.07;;
6661;SDS011;3367;48.714;8.994;2023-03-31T10:52:07;5.70;;;1.70;;
6661;SDS011;3367;48.714;8.994;2023-03-31T10:54:45;3.67;;;1.50;;
6661;SDS011;3367;48.714;8.994;2023-03-31T10:57:13;6.33;;;1.77;;
6661;SDS011;3367;48.714;8.994;2023-03-31T10:59:44;12.77;;;1.60;;
6661;SDS011;3367;48.714;8.994;2023-03-31T11:02:34;3.00;;;0.93;;
6661;SDS011;3367;48.714;8.994;2023-03-31T11:05:22;5.07;;;1.27;;
6661;SDS011;3367;48.714;8.994;2023-03-31T11:07:59;4.37;;;1.33;;
6661;SDS011;3367;48.714;8.994;2023-03-31T11:10:40;2.33;;;1.30;;
6661;SDS011;3367;48.714;8.994;2023-03-31T11:13:18;7.10;;;1.43;;
6661;SDS011;3367;48.714;8.994;2023-03-31T11:15:53;2.63;;;0.73;;
6661;SDS011;3367;48.714;8.994;2023-03-31T11:18:34;3.93;;;0.67;;
6661;SDS011;3367;48.714;8.994;2023-03-31T11:21:11;2.30;;;0.70;;
6661;SDS011;3367;48.714;8.994;2023-03-31T11:23:47;2.00;;;0.67;;
6661;SDS011;3367;48.714;8.994;2023-03-31T11:26:23;2.00;;;0.53;;
6661;SDS011;3367;48.714;8.994;2023-03-31T11:29:01;1.23;;;0.70;;
6661;SDS011;3367;48.714;8.994;2023-03-31T11:31:40;1.57;;;0.43;;
6661;SDS011;3367;48.714;8.994;2023-03-31T11:34:18;3.33;;;0.60;;
6661;SDS011;3367;48.714;8.994;2023-03-31T11:37:15;2.00;;;0.50;;
6661;SDS011;3367;48.714;8.994;2023-03-31T11:40:03;2.13;;;0.40;;
6661;SDS011;3367;48.714;8.994;2023-03-31T11:42:43;0.93;;;0.40;;
6661;SDS011;3367;48.714;8.994;2023-03-31T11:45:15;4.20;;;0.70;;
6661;SDS011;3367;48.714;8.994;2023-03-31T11:47:47;1.90;;;0.50;;
6661;SDS011;3367;48.714;8.994;2023-03-31T11:50:18;3.53;;;1.00;;
6661;SDS011;3367;48.714;8.994;2023-03-31T11:52:49;0.80;;;0.40;;
6661;SDS011;3367;48.714;8.994;2023-03-31T11:55:20;1.03;;;0.40;;
6661;SDS011;3367;48.714;8.994;2023-03-31T11:57:52;0.60;;;0.50;;
6661;SDS011;3367;48.714;8.994;2023-03-31T12:00:26;0.73;;;0.60;;
6661;SDS011;3367;48.714;8.994;2023-03-31T12:02:58;1.33;;;0.50;;
6661;SDS011;3367;48.714;8.994;2023-03-31T12:05:32;0.93;;;0.40;;
6661;SDS011;3367;48.714;8.994;2023-03-31T12:08:02;1.00;;;0.40;;
6661;SDS011;3367;48.714;8.994;2023-03-31T12:10:33;0.70;;;0.50;;
6661;SDS011;3367;48.714;8.994;2023-03-31T12:13:04;1.10;;;0.50;;
6661;SDS011;3367;48.714;8.994;2023-03-31T12:15:40;0.70;;;0.50;;
6661;SDS011;3367;48.714;8.994;2023-03-31T12:18:13;0.90;;;0.50;;
6661;SDS011;3367;48.714;8.994;2023-03-31T12:20:46;1.07;;;0.70;;
6661;SDS011;3367;48.714;8.994;2023-03-31T12:23:17;5.00;;;0.80;;
6661;SDS011;3367;48.714;8.994;2023-03-31T12:25:49;2.10;;;0.50;;
6661;SDS011;3367;48.714;8.994;2023-03-31T12:28:20;1.47;;;0.70;;
6661;SDS011;3367;48.714;8.994;2023-03-31T12:30:48;0.70;;;0.40;;
6661;SDS011;3367;48.714;8.994;2023-03-31T12:33:18;1.00;;;0.70;;
6661;SDS011;3367;48.714;8.994;2023-03-31T12:35:51;1.03;;;0.40;;
6661;SDS011;3367;48.714;8.994;2023-03-31T12:38:32;0.80;;;0.30;;
6661;SDS011;3367;48.714;8.994;2023-03-31T12:41:12;2.80;;;0.93;;
6661;SDS011;3367;48.714;8.994;2023-03-31T12:43:50;2.10;;;0.70;;
6661;SDS011;3367;48.714;8.994;2023-03-31T12:46:34;2.70;;;0.50;;
6661;SDS011;3367;48.714;8.994;2023-03-31T12:49:18;3.07;;;0.63;;
6661;SDS011;3367;48.714;8.994;2023-03-31T12:51:57;1.50;;;0.50;;
6661;SDS011;3367;48.714;8.994;2023-03-31T12:54:32;5.67;;;1.00;;
6661;SDS011;3367;48.714;8.994;2023-03-31T12:57:15;1.03;;;0.73;;
6661;SDS011;3367;48.714;8.994;2023-03-31T12:59:46;1.57;;;0.63;;
6661;SDS011;3367;48.714;8.994;2023-03-31T13:02:50;8.83;;;2.63;;
6661;SDS011;3367;48.714;8.994;2023-03-31T13:05:56;6.00;;;1.07;;
6661;SDS011;3367;48.714;8.994;2023-03-31T13:11:15;4.63;;;1.73;;
6661;SDS011;3367;48.714;8.994;2023-03-31T13:13:43;2.23;;;0.97;;
6661;SDS011;3367;48.714;8.994;2023-03-31T13:16:18;4.77;;;1.30;;
6661;SDS011;3367;48.714;8.994;2023-03-31T13:18:49;7.90;;;1.43;;
6661;SDS011;3367;48.714;8.994;2023-03-31T13:21:18;5.60;;;1.70;;
6661;SDS011;3367;48.714;8.994;2023-03-31T13:23:45;3.27;;;0.90;;
6661;SDS011;3367;48.714;8.994;2023-03-31T13:29:10;1.60;;;0.70;;
6661;SDS011;3367;48.714;8.994;2023-03-31T13:32:04;3.33;;;0.60;;
6661;SDS011;3367;48.714;8.994;2023-03-31T13:34:46;2.30;;;0.60;;
6661;SDS011;3367;48.714;8.994;2023-03-31T13:37:20;1.70;;;0.60;;
6661;SDS011;3367;48.714;8.994;2023-03-31T13:42:52;1.87;;;0.90;;
6661;SDS011;3367;48.714;8.994;2023-03-31T13:45:37;5.27;;;0.70;;
6661;SDS011;3367;48.714;8.994;2023-03-31T13:48:16;1.57;;;0.70;;
6661;SDS011;3367;48.714;8.994;2023-03-31T13:50:55;0.97;;;0.50;;
6661;SDS011;3367;48.714;8.994;2023-03-31T13:53:41;1.50;;;0.70;;
6661;SDS011;3367;48.714;8.994;2023-03-31T13:56:30;1.63;;;0.63;;
6661;SDS011;3367;48.714;8.994;2023-03-31T13:59:13;1.13;;;0.60;;
6661;SDS011;3367;48.714;8.994;2023-03-31T14:07:49;1.00;;;0.90;;
6661;SDS011;3367;48.714;8.994;2023-03-31T14:10:22;1.97;;;0.70;;
6661;SDS011;3367;48.714;8.994;2023-03-31T14:12:51;1.50;;;0.50;;
6661;SDS011;3367;48.714;8.994;2023-03-31T14:15:28;1.40;;;0.90;;
6661;SDS011;3367;48.714;8.994;2023-03-31T14:17:55;1.60;;;1.40;;
6661;SDS011;3367;48.714;8.994;2023-03-31T14:20:27;3.13;;;1.93;;
6661;SDS011;3367;48.714;8.994;2023-03-31T14:23:12;0.70;;;0.40;;
6661;SDS011;3367;48.714;8.994;2023-03-31T14:25:51;1.00;;;0.47;;
6661;SDS011;3367;48.714;8.994;2023-03-31T14:28:34;1.37;;;1.00;;
6661;SDS011;3367;48.714;8.994;2023-03-31T14:31:12;0.60;;;0.40;;
6661;SDS011;3367;48.714;8.994;2023-03-31T14:33:46;1.07;;;0.50;;
6661;SDS011;3367;48.714;8.994;2023-03-31T14:36:37;0.97;;;0.40;;
6661;SDS011;3367;48.714;8.994;2023-03-31T14:39:13;1.10;;;0.50;;
6661;SDS011;3367;48.714;8.994;2023-03-31T14:41:50;1.67;;;0.80;;
6661;SDS011;3367;48.714;8.994;2023-03-31T14:44:18;1.00;;;0.50;;
6661;SDS011;3367;48.714;8.994;2023-03-31T14:46:45;2.53;;;1.00;;
6661;SDS011;3367;48.714;8.994;2023-03-31T14:49:14;4.63;;;0.40;;
6661;SDS011;3367;48.714;8.994;2023-03-31T14:51:46;1.10;;;0.80;;
6661;SDS011;3367;48.714;8.994;2023-03-31T14:54:14;1.47;;;0.70;;
6661;SDS011;3367;48.714;8.994;2023-03-31T14:56:43;1.43;;;0.50;;
6661;SDS011;3367;48.714;8.994;2023-03-31T14:59:14;0.80;;;0.50;;
6661;SDS011;3367;48.714;8.994;2023-03-31T15:01:45;1.63;;;0.57;;
6661;SDS011;3367;48.714;8.994;2023-03-31T15:04:14;0.80;;;0.50;;
6661;SDS011;3367;48.714;8.994;2023-03-31T15:06:44;3.00;;;0.70;;
6661;SDS011;3367;48.714;8.994;2023-03-31T15:09:15;2.30;;;0.70;;
6661;SDS011;3367;48.714;8.994;2023-03-31T15:11:45;3.10;;;1.07;;
6661;SDS011;3367;48.714;8.994;2023-03-31T15:14:14;2.33;;;0.80;;
6661;SDS011;3367;48.714;8.994;2023-03-31T15:16:41;6.70;;;0.60;;
6661;SDS011;3367;48.714;8.994;2023-03-31T15:19:11;1.33;;;0.57;;
6661;SDS011;3367;48.714;8.994;2023-03-31T15:21:41;1.20;;;0.60;;
6661;SDS011;3367;48.714;8.994;2023-03-31T15:24:09;0.83;;;0.60;;
6661;SDS011;3367;48.714;8.994;2023-03-31T15:26:38;2.37;;;1.10;;
6661;SDS011;3367;48.714;8.994;2023-03-31T15:29:11;2.63;;;0.70;;
6661;SDS011;3367;48.714;8.994;2023-03-31T15:31:44;2.30;;;0.90;;
6661;SDS011;3367;48.714;8.994;2023-03-31T15:34:12;2.23;;;0.70;;
6661;SDS011;3367;48.714;8.994;2023-03-31T15:36:40;2.63;;;0.70;;
6661;SDS011;3367;48.714;8.994;2023-03-31T15:39:09;3.40;;;0.93;;
6661;SDS011;3367;48.714;8.994;2023-03-31T15:41:38;2.90;;;0.63;;
6661;SDS011;3367;48.714;8.994;2023-03-31T15:44:06;1.77;;;0.60;;
6661;SDS011;3367;48.714;8.994;2023-03-31T15:47:00;1.40;;;0.50;;
6661;SDS011;3367;48.714;8.994;2023-03-31T15:49:31;5.27;;;0.77;;
6661;SDS011;3367;48.714;8.994;2023-03-31T15:51:57;1.90;;;0.73;;
6661;SDS011;3367;48.714;8.994;2023-03-31T15:54:28;1.33;;;0.60;;
6661;SDS011;3367;48.714;8.994;2023-03-31T15:57:00;10.27;;;1.27;;
6661;SDS011;3367;48.714;8.994;2023-03-31T15:59:28;2.63;;;1.20;;
6661;SDS011;3367;48.714;8.994;2023-03-31T16:01:56;2.03;;;0.70;;